Strona główna
METAR-TAF:

METAR-TAF

Lotnisko :

Port lotniczy Darwin

Darwin, Australia

Szerokość geograficzna: 12-24S, Długość geograficzna: 130-52E, wysokość: 31 m

Aktualna obserwacja pogody

Raport powstał 53 minut temu, godzina 06:00 UTC
Wiatr 14 kt od zachód
Temperatura 33°C
Wilgotność 71%
Ciśnienie 1005 hPa
Widzialność 10 km lub więcej
Mało chmury na wysokości 2400 ft
Przerywane chmury na wysokości 35000 ft

METAR: YPDN 220600Z 28014KT 9999 FEW024 BKN350 33/27 Q1005

czas: 16:23 (06:53 UTC)

Prognoza

Raport powstał 1 godzina i 13 minut temu, godzina 05:40 UTC
Prognoza ważna od 22 godzina 06 UTC do 23 godzina 12 UTC
Wiatr 14 kt od zachód
Widzialność 10 km lub więcej
Mało chmury na wysokości 3000 ft
Od 22 godzina 1200 UTC
Wiatr 10 kt od zachód
Widzialność 10 km lub więcej
Rozproszone chmury na wysokości 2000 ft
Od 23 godzina 0100 UTC
Wiatr 14 kt od zachód
Widzialność 10 km lub więcej
Mało chmury na wysokości 3000 ft

TAF: YPDN 220540Z 2206/2312 27014KT 9999 FEW030 FM221200 27010KT 9999 SCT020 FM230100 27014KT 9999 FEW030

Obserwacja i prognoza pogody dla ponad 4000 lotnisk (raport METAR i TAF).

Dostępne stacje oznaczono żółtymi i czerwonymi punktami na mapie.

Najedź kursorem aby zobaczyć nazwę stacji.

Kliknij aby zobaczyć obserwacje i prognozy pogody.

Aby zmienić mapę: kliknij na zielony przycisk z czarnym krzyżykiem, aby powiększyć; na zielony przycisk z myślnikiem, aby pomniejszyć; na zielone strzałki, aby przejść do map sąsiednich.


METAR-TAF: